createdAt,value
2018-05-26T00:01:26.215Z,15.60
2018-05-26T00:03:54.491Z,15.60
2018-05-26T00:06:22.781Z,15.60
2018-05-26T00:08:51.020Z,15.60
2018-05-26T00:11:19.260Z,15.50
2018-05-26T00:13:47.601Z,15.50
2018-05-26T00:16:15.861Z,15.50
2018-05-26T00:18:44.160Z,15.40
2018-05-26T00:21:12.420Z,15.40
2018-05-26T00:23:40.656Z,15.40
2018-05-26T00:26:09.671Z,15.30
2018-05-26T00:28:37.963Z,15.30
2018-05-26T00:31:06.207Z,15.30
2018-05-26T00:33:35.246Z,15.20
2018-05-26T00:36:03.505Z,15.20
2018-05-26T00:38:31.791Z,15.20
2018-05-26T00:41:00.047Z,15.10
2018-05-26T00:43:28.340Z,15.10
2018-05-26T00:45:56.608Z,15.00
2018-05-26T00:48:25.188Z,15.10
2018-05-26T00:50:53.423Z,15.00
2018-05-26T00:53:22.430Z,15.10
2018-05-26T00:55:51.450Z,15.00
2018-05-26T00:58:19.712Z,15.00
2018-05-26T01:00:47.999Z,15.00
2018-05-26T01:03:16.295Z,14.90
2018-05-26T01:05:44.561Z,14.90
2018-05-26T01:08:12.953Z,14.90
2018-05-26T01:10:41.200Z,14.80
2018-05-26T01:13:09.439Z,14.80
2018-05-26T01:15:38.494Z,14.80
2018-05-26T01:18:06.754Z,14.80
2018-05-26T01:20:35.020Z,14.80
2018-05-26T01:23:03.279Z,14.80
2018-05-26T01:25:31.513Z,14.80
2018-05-26T01:27:59.769Z,14.70
2018-05-26T01:30:28.025Z,14.60
2018-05-26T01:32:56.278Z,14.60
2018-05-26T01:35:24.593Z,14.50
2018-05-26T01:37:52.849Z,14.50
2018-05-26T01:40:21.099Z,14.40
2018-05-26T01:42:49.772Z,14.40
2018-05-26T01:45:18.813Z,14.30
2018-05-26T01:47:47.124Z,14.30
2018-05-26T01:50:15.366Z,14.30
2018-05-26T01:52:43.621Z,14.20
2018-05-26T01:55:11.864Z,14.20
2018-05-26T01:57:40.909Z,14.20
2018-05-26T02:00:09.178Z,14.20
2018-05-26T02:02:37.431Z,14.20
2018-05-26T02:05:05.684Z,14.10
2018-05-26T02:07:34.721Z,14.10
2018-05-26T02:10:02.973Z,14.10
2018-05-26T02:12:31.284Z,14.10
2018-05-26T02:14:59.523Z,14.10
2018-05-26T02:17:27.816Z,14.10
2018-05-26T02:19:56.075Z,14.10
2018-05-26T02:22:24.382Z,14.10
2018-05-26T02:24:52.630Z,14.10
2018-05-26T02:27:20.931Z,14.10
2018-05-26T02:29:49.204Z,14.00
2018-05-26T02:32:17.457Z,14.00
2018-05-26T02:34:45.743Z,14.00
2018-05-26T02:37:14.010Z,13.90
2018-05-26T02:39:42.251Z,14.00
2018-05-26T02:42:11.266Z,14.00
2018-05-26T02:44:39.530Z,13.90
2018-05-26T02:47:08.535Z,13.90
2018-05-26T02:49:36.797Z,13.90
2018-05-26T02:52:05.822Z,13.80
2018-05-26T02:54:34.104Z,13.80
2018-05-26T02:57:02.386Z,13.80
2018-05-26T02:59:30.642Z,13.80
2018-05-26T03:01:58.889Z,13.90
2018-05-26T03:04:33.722Z,13.80
2018-05-26T03:07:07.625Z,13.90
2018-05-26T03:09:42.432Z,13.80
2018-05-26T03:12:16.395Z,13.80
2018-05-26T03:14:47.128Z,13.80
2018-05-26T03:17:21.007Z,13.70
2018-05-26T03:19:50.049Z,13.70
2018-05-26T03:22:18.310Z,13.60
2018-05-26T03:24:46.560Z,13.70
2018-05-26T03:27:14.874Z,13.70
2018-05-26T03:29:43.145Z,13.70
2018-05-26T03:32:11.424Z,13.70
2018-05-26T03:34:39.692Z,13.70
2018-05-26T03:37:07.946Z,13.80
2018-05-26T03:39:36.201Z,13.80
2018-05-26T03:42:05.207Z,13.90
2018-05-26T03:44:33.477Z,13.90
2018-05-26T03:47:03.357Z,14.00
2018-05-26T03:49:31.690Z,14.20
2018-05-26T03:51:59.972Z,14.40
2018-05-26T03:57:42.785Z,14.90
2018-05-26T04:00:11.079Z,15.10
2018-05-26T04:02:39.315Z,15.40
2018-05-26T04:05:08.342Z,15.90
2018-05-26T04:07:36.603Z,15.90
2018-05-26T04:10:06.221Z,16.40
2018-05-26T04:12:34.456Z,16.40
2018-05-26T04:15:02.703Z,16.70
2018-05-26T04:17:30.948Z,17.10
2018-05-26T04:19:59.196Z,17.60
2018-05-26T04:22:29.106Z,18.10
2018-05-26T04:24:57.424Z,18.10
2018-05-26T04:27:25.691Z,18.40
2018-05-26T04:29:53.949Z,19.00
2018-05-26T04:32:22.190Z,19.70
2018-05-26T04:34:50.529Z,20.10
2018-05-26T04:37:18.806Z,20.30
2018-05-26T04:39:47.085Z,20.30
2018-05-26T04:42:15.329Z,20.60
2018-05-26T04:44:44.075Z,20.90
2018-05-26T04:47:12.297Z,21.20
2018-05-26T04:49:40.590Z,21.50
2018-05-26T04:52:08.833Z,21.90
2018-05-26T04:54:37.853Z,22.10
2018-05-26T04:57:06.137Z,22.10
2018-05-26T04:59:34.377Z,21.90
2018-05-26T05:02:02.685Z,22.00
2018-05-26T05:04:30.961Z,22.20
2018-05-26T05:06:59.211Z,22.50
2018-05-26T05:09:27.461Z,22.70
2018-05-26T05:11:56.481Z,22.90
2018-05-26T05:14:24.730Z,22.90
2018-05-26T05:16:53.740Z,23.10
2018-05-26T05:19:22.045Z,23.10
2018-05-26T05:21:50.287Z,23.60
2018-05-26T05:24:18.592Z,24.10
2018-05-26T05:26:46.852Z,24.90
2018-05-26T05:29:15.849Z,26.70
2018-05-26T05:31:44.127Z,26.60
2018-05-26T05:34:12.407Z,27.70
2018-05-26T05:36:40.679Z,28.80
2018-05-26T05:39:08.906Z,30.10
2018-05-26T05:41:37.157Z,30.90
2018-05-26T05:44:05.405Z,31.50
2018-05-26T05:46:33.661Z,32.30
2018-05-26T05:49:01.976Z,33.00
2018-05-26T05:51:30.213Z,33.90
2018-05-26T05:53:58.511Z,33.90
2018-05-26T05:56:26.761Z,34.40
2018-05-26T05:58:55.009Z,34.50
2018-05-26T06:01:23.254Z,34.30
2018-05-26T06:03:51.499Z,34.20
2018-05-26T06:06:19.743Z,34.00
2018-05-26T06:08:48.921Z,34.20
2018-05-26T06:11:17.283Z,34.20
2018-05-26T06:13:45.860Z,34.70
2018-05-26T06:16:14.093Z,34.90
2018-05-26T06:18:42.603Z,35.00
2018-05-26T06:21:11.015Z,34.80
2018-05-26T06:23:39.484Z,35.20
2018-05-26T06:26:07.719Z,35.30
2018-05-26T06:28:35.999Z,34.80
2018-05-26T06:31:04.235Z,34.10
2018-05-26T06:33:33.267Z,33.40
2018-05-26T06:36:01.544Z,33.40
2018-05-26T06:38:30.159Z,34.00
2018-05-26T06:40:58.447Z,34.80
2018-05-26T06:43:26.679Z,35.50
2018-05-26T06:45:55.196Z,35.60
2018-05-26T06:48:23.425Z,35.50
2018-05-26T06:50:51.707Z,36.00
2018-05-26T06:53:19.983Z,36.10
2018-05-26T06:55:48.235Z,35.90
2018-05-26T06:58:17.247Z,34.40
2018-05-26T07:00:45.488Z,34.30
2018-05-26T07:03:14.504Z,33.70
2018-05-26T07:05:42.752Z,33.70
2018-05-26T07:08:11.787Z,33.90
2018-05-26T07:10:40.027Z,33.90
2018-05-26T07:13:09.056Z,33.90
2018-05-26T07:15:37.337Z,33.80
2018-05-26T07:18:05.589Z,33.00
2018-05-26T07:20:33.879Z,32.70
2018-05-26T07:23:02.127Z,32.20
2018-05-26T07:25:31.147Z,31.30
2018-05-26T07:27:59.438Z,31.30
2018-05-26T07:30:27.697Z,31.30
2018-05-26T07:32:55.928Z,31.50
2018-05-26T07:35:24.984Z,30.90
2018-05-26T07:37:53.219Z,30.80
2018-05-26T07:40:21.464Z,30.90
2018-05-26T07:42:50.471Z,30.90
2018-05-26T07:45:19.493Z,30.70
2018-05-26T07:47:47.779Z,30.60
2018-05-26T07:50:16.042Z,30.50
2018-05-26T07:52:44.345Z,30.00
2018-05-26T07:55:12.650Z,30.40
2018-05-26T07:57:40.897Z,30.70
2018-05-26T08:00:09.150Z,30.80
2018-05-26T08:02:38.513Z,30.50
2018-05-26T08:05:07.525Z,29.10
2018-05-26T08:07:36.397Z,29.10
2018-05-26T08:10:04.630Z,29.30
2018-05-26T08:12:32.950Z,29.60
2018-05-26T08:15:01.374Z,29.70
2018-05-26T08:17:29.696Z,30.20
2018-05-26T08:19:57.923Z,29.60
2018-05-26T08:22:26.181Z,29.40
2018-05-26T08:24:54.471Z,28.80
2018-05-26T08:27:22.783Z,28.10
2018-05-26T08:29:51.767Z,27.40
2018-05-26T08:32:20.017Z,27.30
2018-05-26T08:34:48.269Z,27.10
2018-05-26T08:37:16.567Z,27.30
2018-05-26T08:39:44.893Z,27.90
2018-05-26T08:42:13.126Z,27.50
2018-05-26T08:44:41.379Z,27.30
2018-05-26T08:47:09.611Z,27.70
2018-05-26T08:49:38.863Z,27.70
2018-05-26T08:52:07.098Z,27.40
2018-05-26T08:54:36.119Z,27.00
2018-05-26T08:57:04.365Z,27.00
2018-05-26T08:59:33.366Z,27.20
2018-05-26T09:02:02.389Z,27.10
2018-05-26T09:04:30.633Z,27.10
2018-05-26T09:06:59.649Z,27.30
2018-05-26T09:09:27.949Z,27.30
2018-05-26T09:11:56.200Z,27.00
2018-05-26T09:14:24.439Z,27.00
2018-05-26T09:16:53.458Z,26.20
2018-05-26T09:19:21.765Z,26.20
2018-05-26T09:21:50.064Z,26.30
2018-05-26T09:24:18.247Z,26.50
2018-05-26T09:26:46.591Z,27.10
2018-05-26T09:29:14.864Z,27.00
2018-05-26T09:31:43.130Z,26.90
2018-05-26T09:34:11.376Z,26.40
2018-05-26T09:36:40.396Z,26.80
2018-05-26T09:39:08.645Z,26.80
2018-05-26T09:41:37.664Z,26.60
2018-05-26T09:44:05.915Z,26.60
2018-05-26T09:46:34.930Z,26.30
2018-05-26T09:49:03.253Z,26.30
2018-05-26T09:51:31.479Z,26.20
2018-05-26T09:53:59.719Z,26.10
2018-05-26T09:56:28.864Z,26.30
2018-05-26T09:58:57.136Z,26.30
2018-05-26T10:01:25.398Z,26.70
2018-05-26T10:03:53.693Z,26.90
2018-05-26T10:06:21.949Z,27.20
2018-05-26T10:08:50.238Z,27.30
2018-05-26T10:11:18.495Z,27.50
2018-05-26T10:13:46.745Z,27.40
2018-05-26T10:16:16.252Z,27.10
2018-05-26T10:18:45.275Z,27.40
2018-05-26T10:21:13.565Z,27.40
2018-05-26T10:23:41.811Z,27.60
2018-05-26T10:26:10.149Z,26.80
2018-05-26T10:28:38.363Z,26.30
2018-05-26T10:31:06.608Z,26.30
2018-05-26T10:33:36.459Z,26.50
2018-05-26T10:36:04.695Z,26.40
2018-05-26T10:38:33.717Z,25.70
2018-05-26T10:41:01.961Z,25.70
2018-05-26T10:43:30.293Z,25.60
2018-05-26T10:46:10.539Z,25.60
2018-05-26T10:48:38.797Z,25.90
2018-05-26T10:51:07.109Z,26.10
2018-05-26T10:53:35.387Z,25.80
2018-05-26T10:56:03.647Z,25.60
2018-05-26T10:58:31.922Z,25.50
2018-05-26T11:01:00.187Z,25.30
2018-05-26T11:03:28.434Z,25.30
2018-05-26T11:05:57.444Z,25.60
2018-05-26T11:08:25.739Z,25.50
2018-05-26T11:10:54.016Z,25.60
2018-05-26T11:13:22.300Z,25.70
2018-05-26T11:15:50.537Z,25.80
2018-05-26T11:18:19.565Z,25.50
2018-05-26T11:20:47.817Z,25.50
2018-05-26T11:23:16.073Z,25.70
2018-05-26T11:25:45.113Z,25.10
2018-05-26T11:28:13.366Z,25.10
2018-05-26T11:30:41.594Z,25.30
2018-05-26T11:33:09.971Z,25.30
2018-05-26T11:35:38.194Z,25.20
2018-05-26T11:38:06.439Z,25.10
2018-05-26T11:40:35.470Z,25.00
2018-05-26T11:43:03.945Z,25.00
2018-05-26T11:45:32.952Z,24.90
2018-05-26T11:48:01.338Z,24.90
2018-05-26T11:50:30.916Z,25.10
2018-05-26T11:52:59.897Z,25.10
2018-05-26T11:55:28.209Z,25.10
2018-05-26T11:57:56.451Z,25.20
2018-05-26T12:00:24.699Z,25.30
2018-05-26T12:02:53.123Z,25.20
2018-05-26T12:05:21.405Z,25.40
2018-05-26T12:07:49.643Z,25.50
2018-05-26T12:10:18.678Z,25.20
2018-05-26T12:12:46.953Z,25.20
2018-05-26T12:15:15.199Z,25.20
2018-05-26T12:17:43.441Z,25.30
2018-05-26T12:20:11.767Z,25.40
2018-05-26T12:22:40.017Z,25.40
2018-05-26T12:25:08.329Z,25.60
2018-05-26T12:27:36.614Z,25.50
2018-05-26T12:30:04.871Z,25.20
2018-05-26T12:32:33.261Z,25.30
2018-05-26T12:35:01.503Z,25.50
2018-05-26T12:37:29.735Z,25.50
2018-05-26T12:39:58.091Z,25.70
2018-05-26T12:42:26.348Z,25.70
2018-05-26T12:44:54.639Z,25.70
2018-05-26T12:47:22.911Z,25.80
2018-05-26T12:49:51.153Z,25.90
2018-05-26T12:52:19.455Z,25.70
2018-05-26T12:54:47.710Z,25.70
2018-05-26T12:57:16.048Z,25.70
2018-05-26T12:59:44.305Z,25.70
2018-05-26T13:02:12.534Z,25.50
2018-05-26T13:04:41.554Z,25.30
2018-05-26T13:07:09.833Z,25.30
2018-05-26T13:09:38.100Z,25.50
2018-05-26T13:12:06.389Z,25.50
2018-05-26T13:14:34.632Z,25.50
2018-05-26T13:17:02.927Z,25.40
2018-05-26T13:19:31.172Z,25.40
2018-05-26T13:22:00.195Z,25.40
2018-05-26T13:24:28.467Z,25.40
2018-05-26T13:26:56.723Z,25.40
2018-05-26T13:29:24.982Z,25.20
2018-05-26T13:31:53.221Z,25.20
2018-05-26T13:34:21.471Z,25.10
2018-05-26T13:36:49.743Z,25.10
2018-05-26T13:39:17.987Z,25.00
2018-05-26T13:41:47.000Z,25.00
2018-05-26T13:44:15.243Z,25.00
2018-05-26T13:46:44.254Z,25.10
2018-05-26T13:49:12.518Z,25.00
2018-05-26T13:51:40.752Z,25.10
2018-05-26T13:54:09.022Z,25.30
2018-05-26T13:56:37.262Z,25.40
2018-05-26T13:59:05.569Z,25.30
2018-05-26T14:01:33.875Z,25.30
2018-05-26T14:04:02.093Z,25.30
2018-05-26T14:06:30.393Z,25.20
2018-05-26T14:08:58.667Z,25.30
2018-05-26T14:11:26.921Z,25.50
2018-05-26T14:13:55.213Z,25.70
2018-05-26T14:16:23.467Z,25.90
2018-05-26T14:18:51.706Z,26.00
2018-05-26T14:21:19.953Z,26.00
2018-05-26T14:23:48.209Z,25.80
2018-05-26T14:26:16.451Z,25.70
2018-05-26T14:28:45.465Z,25.70
2018-05-26T14:31:14.591Z,25.70
2018-05-26T14:33:42.823Z,25.70
2018-05-26T14:36:11.164Z,25.70
2018-05-26T14:38:41.431Z,25.60
2018-05-26T14:41:09.725Z,25.50
2018-05-26T14:43:38.013Z,25.50
2018-05-26T14:46:06.252Z,25.60
2018-05-26T14:48:34.495Z,25.60
2018-05-26T14:51:02.755Z,25.50
2018-05-26T14:53:31.001Z,25.50
2018-05-26T14:55:59.372Z,25.70
2018-05-26T14:58:27.643Z,25.90
2018-05-26T15:00:55.884Z,26.00
2018-05-26T15:03:24.896Z,26.20
2018-05-26T15:05:53.127Z,26.20
2018-05-26T15:08:21.487Z,26.10
2018-05-26T15:10:49.739Z,25.90
2018-05-26T15:13:18.026Z,25.70
2018-05-26T15:15:46.272Z,25.80
2018-05-26T15:18:14.575Z,25.70
2018-05-26T15:20:42.821Z,25.80
2018-05-26T15:23:11.064Z,25.90
2018-05-26T15:25:39.396Z,25.80
2018-05-26T15:28:07.641Z,25.70
2018-05-26T15:30:36.643Z,25.70
2018-05-26T15:33:04.895Z,25.70
2018-05-26T15:35:33.940Z,25.70
2018-05-26T15:38:02.187Z,25.70
2018-05-26T15:40:30.495Z,25.70
2018-05-26T15:42:58.753Z,25.70
2018-05-26T15:45:26.998Z,25.60
2018-05-26T15:47:56.023Z,25.60
2018-05-26T15:50:24.269Z,25.60
2018-05-26T15:52:53.303Z,25.50
2018-05-26T15:55:21.548Z,25.50
2018-05-26T15:57:49.795Z,25.40
2018-05-26T16:00:18.121Z,25.40
2018-05-26T16:02:46.394Z,25.30
2018-05-26T16:05:14.675Z,25.20
2018-05-26T16:07:43.526Z,25.20
2018-05-26T16:10:12.561Z,25.30
2018-05-26T16:12:40.813Z,25.20
2018-05-26T16:15:09.112Z,25.20
2018-05-26T16:17:37.376Z,25.30
2018-05-26T16:20:05.612Z,25.30
2018-05-26T16:22:35.371Z,25.20
2018-05-26T16:25:03.610Z,25.20
2018-05-26T16:27:32.681Z,25.20
2018-05-26T16:30:01.022Z,25.10
2018-05-26T16:32:29.266Z,25.20
2018-05-26T16:34:57.509Z,25.30
2018-05-26T16:37:26.561Z,25.30
2018-05-26T16:39:54.809Z,25.30
2018-05-26T16:42:23.065Z,25.30
2018-05-26T16:44:52.075Z,25.30
2018-05-26T16:47:20.325Z,25.30
2018-05-26T16:49:49.359Z,25.30
2018-05-26T16:52:17.599Z,25.20
2018-05-26T16:54:46.621Z,25.20
2018-05-26T16:57:14.912Z,25.20
2018-05-26T16:59:43.182Z,25.20
2018-05-26T17:02:11.436Z,25.10
2018-05-26T17:04:39.689Z,25.00
2018-05-26T17:07:08.702Z,25.00
2018-05-26T17:09:37.858Z,24.90
2018-05-26T17:12:06.207Z,24.90
2018-05-26T17:14:34.460Z,24.80
2018-05-26T17:17:02.747Z,24.80
2018-05-26T17:19:31.019Z,24.70
2018-05-26T17:21:59.311Z,24.70
2018-05-26T17:24:27.601Z,24.70
2018-05-26T17:26:55.847Z,24.60
2018-05-26T17:29:24.101Z,24.60
2018-05-26T17:31:52.345Z,24.60
2018-05-26T17:34:20.598Z,24.60
2018-05-26T17:36:48.832Z,24.50
2018-05-26T17:39:17.075Z,24.50
2018-05-26T17:41:46.079Z,24.40
2018-05-26T17:44:15.151Z,24.40
2018-05-26T17:46:43.367Z,24.40
2018-05-26T17:49:11.626Z,24.40
2018-05-26T17:51:40.623Z,24.30
2018-05-26T17:54:08.937Z,24.30
2018-05-26T17:56:37.177Z,24.20
2018-05-26T17:59:05.475Z,24.10
2018-05-26T18:01:33.761Z,24.10
2018-05-26T18:04:01.999Z,24.00
2018-05-26T18:06:31.017Z,23.90
2018-05-26T18:08:59.295Z,23.90
2018-05-26T18:11:27.540Z,23.90
2018-05-26T18:13:56.544Z,23.80
2018-05-26T18:16:24.846Z,23.80
2018-05-26T18:18:53.091Z,23.80
2018-05-26T18:21:21.407Z,23.70
2018-05-26T18:23:49.650Z,23.70
2018-05-26T18:26:17.900Z,23.60
2018-05-26T18:28:46.941Z,23.50
2018-05-26T18:31:15.221Z,23.50
2018-05-26T18:33:43.467Z,23.50
2018-05-26T18:36:11.780Z,23.40
2018-05-26T18:38:40.019Z,23.30
2018-05-26T18:41:08.281Z,23.20
2018-05-26T18:43:37.275Z,23.10
2018-05-26T18:46:05.524Z,23.10
2018-05-26T18:48:33.861Z,23.00
2018-05-26T18:51:02.126Z,22.90
2018-05-26T18:53:30.355Z,22.80
2018-05-26T18:55:59.378Z,22.70
2018-05-26T18:58:27.683Z,22.60
2018-05-26T19:00:55.936Z,22.60
2018-05-26T19:03:25.054Z,22.50
2018-05-26T19:05:53.329Z,22.50
2018-05-26T19:08:21.573Z,22.40
2018-05-26T19:10:49.881Z,22.30
2018-05-26T19:13:18.115Z,22.20
2018-05-26T19:15:46.411Z,22.00
2018-05-26T19:18:14.691Z,21.90
2018-05-26T19:20:42.927Z,21.70
2018-05-26T19:23:11.954Z,21.50
2018-05-26T19:25:40.195Z,21.50
2018-05-26T19:28:09.217Z,21.40
2018-05-26T19:30:37.461Z,21.30
2018-05-26T19:33:06.475Z,21.20
2018-05-26T19:35:34.832Z,21.20
2018-05-26T19:38:03.055Z,21.20
2018-05-26T19:40:31.324Z,21.10
2018-05-26T19:42:59.608Z,21.00
2018-05-26T19:45:27.844Z,21.00
2018-05-26T19:47:56.861Z,20.80
2018-05-26T19:50:25.109Z,20.80
2018-05-26T19:52:54.115Z,20.70
2018-05-26T19:55:22.367Z,20.70
2018-05-26T19:57:50.609Z,20.60
2018-05-26T20:00:18.858Z,20.60
2018-05-26T20:02:47.109Z,20.60
2018-05-26T20:05:15.418Z,20.50
2018-05-26T20:07:43.694Z,20.50
2018-05-26T20:10:11.927Z,20.40
2018-05-26T20:12:40.951Z,20.30
2018-05-26T20:15:09.193Z,20.30
2018-05-26T20:17:38.947Z,20.20
2018-05-26T20:20:08.453Z,20.20
2018-05-26T20:22:36.711Z,20.20
2018-05-26T20:25:04.969Z,20.20
2018-05-26T20:27:33.987Z,20.20
2018-05-26T20:30:02.223Z,20.20
2018-05-26T20:32:31.247Z,20.20
2018-05-26T20:34:59.589Z,20.20
2018-05-26T20:37:28.600Z,20.40
2018-05-26T20:39:56.838Z,20.40
2018-05-26T20:42:25.187Z,20.40
2018-05-26T20:44:53.445Z,20.20
2018-05-26T20:47:21.696Z,20.20
2018-05-26T20:49:50.000Z,20.10
2018-05-26T20:52:18.271Z,20.00
2018-05-26T20:54:46.538Z,20.00
2018-05-26T20:57:15.159Z,19.90
2018-05-26T20:59:43.417Z,19.80
2018-05-26T21:02:11.693Z,19.70
2018-05-26T21:04:39.935Z,19.70
2018-05-26T21:07:08.235Z,19.60
2018-05-26T21:09:37.365Z,19.50
2018-05-26T21:12:05.710Z,19.50
2018-05-26T21:14:33.956Z,19.40
2018-05-26T21:17:02.192Z,19.40
2018-05-26T21:19:30.541Z,19.40
2018-05-26T21:21:58.795Z,19.30
2018-05-26T21:24:27.027Z,19.20
2018-05-26T21:26:55.340Z,19.20
2018-05-26T21:29:23.641Z,19.20
2018-05-26T21:31:51.916Z,19.10
2018-05-26T21:34:20.159Z,19.00
2018-05-26T21:36:49.182Z,18.90
2018-05-26T21:39:17.478Z,18.90
2018-05-26T21:41:45.737Z,18.90
2018-05-26T21:44:13.994Z,18.90
2018-05-26T21:46:42.237Z,18.80
2018-05-26T21:49:11.274Z,18.80
2018-05-26T21:51:39.513Z,18.80
2018-05-26T21:54:09.357Z,18.70
2018-05-26T21:56:37.630Z,18.70
2018-05-26T21:59:06.259Z,18.60
2018-05-26T22:01:34.502Z,18.60
2018-05-26T22:04:02.745Z,18.50
2018-05-26T22:06:30.983Z,18.50
2018-05-26T22:08:59.311Z,18.50
2018-05-26T22:11:27.561Z,18.40
2018-05-26T22:13:56.596Z,18.30
2018-05-26T22:16:24.840Z,18.30
2018-05-26T22:18:53.112Z,18.30
2018-05-26T22:21:21.361Z,18.30
2018-05-26T22:23:49.591Z,18.20
2018-05-26T22:26:17.839Z,18.20
2018-05-26T22:28:46.076Z,18.10
2018-05-26T22:31:14.407Z,18.00
2018-05-26T22:33:42.698Z,18.00
2018-05-26T22:36:10.960Z,18.00
2018-05-26T22:38:39.216Z,18.00
2018-05-26T22:41:07.517Z,17.90
2018-05-26T22:43:35.752Z,17.90
2018-05-26T22:46:04.786Z,17.90
2018-05-26T22:48:33.002Z,17.90
2018-05-26T22:51:01.337Z,17.80
2018-05-26T22:53:29.801Z,17.80
2018-05-26T22:55:58.775Z,17.70
2018-05-26T22:58:27.085Z,17.70
2018-05-26T23:00:55.327Z,17.60
2018-05-26T23:03:23.577Z,17.60
2018-05-26T23:05:51.891Z,17.60
2018-05-26T23:08:20.086Z,17.50
2018-05-26T23:10:49.172Z,17.50
2018-05-26T23:13:17.451Z,17.50
2018-05-26T23:15:46.105Z,17.40
2018-05-26T23:18:15.109Z,17.40
2018-05-26T23:20:43.409Z,17.40
2018-05-26T23:23:11.647Z,17.40
2018-05-26T23:25:39.952Z,17.40
2018-05-26T23:28:08.231Z,17.30
2018-05-26T23:30:36.534Z,17.30
2018-05-26T23:33:04.786Z,17.30
2018-05-26T23:35:33.074Z,17.30
2018-05-26T23:38:01.341Z,17.20
2018-05-26T23:40:29.616Z,17.20
2018-05-26T23:42:57.885Z,17.10
2018-05-26T23:45:26.153Z,17.10
2018-05-26T23:47:54.441Z,17.10
2018-05-26T23:50:22.717Z,17.10
2018-05-26T23:52:50.970Z,17.10
2018-05-26T23:55:19.256Z,17.10
2018-05-26T23:57:47.541Z,17.10
